sensor_id;sensor_type;location;lat;lon;timestamp;P1;durP1;ratioP1;P2;durP2;ratioP2
9117;SDS011;4594;50.994;7.126;2023-07-16T00:01:51;3.23;;;1.80;;
9117;SDS011;4594;50.994;7.126;2023-07-16T00:04:17;1.70;;;1.60;;
9117;SDS011;4594;50.994;7.126;2023-07-16T00:06:43;4.73;;;1.80;;
9117;SDS011;4594;50.994;7.126;2023-07-16T00:09:08;1.70;;;1.40;;
9117;SDS011;4594;50.994;7.126;2023-07-16T00:11:34;1.60;;;1.50;;
9117;SDS011;4594;50.994;7.126;2023-07-16T00:14:00;1.57;;;1.47;;
9117;SDS011;4594;50.994;7.126;2023-07-16T00:16:26;1.60;;;1.50;;
9117;SDS011;4594;50.994;7.126;2023-07-16T00:18:53;1.43;;;1.33;;
9117;SDS011;4594;50.994;7.126;2023-07-16T00:21:19;1.60;;;1.50;;
9117;SDS011;4594;50.994;7.126;2023-07-16T00:23:44;1.20;;;1.20;;
9117;SDS011;4594;50.994;7.126;2023-07-16T00:26:10;4.13;;;1.80;;
9117;SDS011;4594;50.994;7.126;2023-07-16T00:28:37;1.90;;;1.70;;
9117;SDS011;4594;50.994;7.126;2023-07-16T00:31:03;1.83;;;1.73;;
9117;SDS011;4594;50.994;7.126;2023-07-16T00:33:29;3.03;;;1.60;;
9117;SDS011;4594;50.994;7.126;2023-07-16T00:35:54;1.77;;;1.70;;
9117;SDS011;4594;50.994;7.126;2023-07-16T00:38:20;2.40;;;1.60;;
9117;SDS011;4594;50.994;7.126;2023-07-16T00:40:46;1.57;;;1.57;;
9117;SDS011;4594;50.994;7.126;2023-07-16T00:43:13;4.33;;;1.57;;
9117;SDS011;4594;50.994;7.126;2023-07-16T00:45:39;3.27;;;2.10;;
9117;SDS011;4594;50.994;7.126;2023-07-16T00:48:06;1.63;;;1.60;;
9117;SDS011;4594;50.994;7.126;2023-07-16T00:50:33;1.60;;;1.50;;
9117;SDS011;4594;50.994;7.126;2023-07-16T00:53:04;2.83;;;1.77;;
9117;SDS011;4594;50.994;7.126;2023-07-16T00:55:32;1.60;;;1.50;;
9117;SDS011;4594;50.994;7.126;2023-07-16T00:58:00;2.77;;;1.60;;
9117;SDS011;4594;50.994;7.126;2023-07-16T01:00:32;1.33;;;1.27;;
9117;SDS011;4594;50.994;7.126;2023-07-16T01:03:00;1.40;;;1.30;;
9117;SDS011;4594;50.994;7.126;2023-07-16T01:05:49;1.70;;;1.60;;
9117;SDS011;4594;50.994;7.126;2023-07-16T01:08:41;1.97;;;1.53;;
9117;SDS011;4594;50.994;7.126;2023-07-16T01:11:13;1.60;;;1.40;;
9117;SDS011;4594;50.994;7.126;2023-07-16T01:13:40;1.70;;;1.60;;
9117;SDS011;4594;50.994;7.126;2023-07-16T01:16:18;1.80;;;1.70;;
9117;SDS011;4594;50.994;7.126;2023-07-16T01:18:49;1.80;;;1.70;;
9117;SDS011;4594;50.994;7.126;2023-07-16T01:21:16;1.23;;;1.23;;
9117;SDS011;4594;50.994;7.126;2023-07-16T01:26:42;1.90;;;1.80;;
9117;SDS011;4594;50.994;7.126;2023-07-16T01:29:34;1.50;;;1.40;;
9117;SDS011;4594;50.994;7.126;2023-07-16T01:32:26;1.60;;;1.60;;
9117;SDS011;4594;50.994;7.126;2023-07-16T01:34:55;1.43;;;1.33;;
9117;SDS011;4594;50.994;7.126;2023-07-16T01:37:23;2.13;;;1.70;;
9117;SDS011;4594;50.994;7.126;2023-07-16T01:39:49;1.60;;;1.50;;
9117;SDS011;4594;50.994;7.126;2023-07-16T01:42:15;1.43;;;1.43;;
9117;SDS011;4594;50.994;7.126;2023-07-16T01:44:41;4.37;;;1.63;;
9117;SDS011;4594;50.994;7.126;2023-07-16T01:47:11;2.83;;;1.50;;
9117;SDS011;4594;50.994;7.126;2023-07-16T01:49:45;2.30;;;1.80;;
9117;SDS011;4594;50.994;7.126;2023-07-16T01:52:11;1.77;;;1.67;;
9117;SDS011;4594;50.994;7.126;2023-07-16T01:54:37;1.77;;;1.67;;
9117;SDS011;4594;50.994;7.126;2023-07-16T01:57:03;2.47;;;1.53;;
9117;SDS011;4594;50.994;7.126;2023-07-16T01:59:29;2.03;;;1.53;;
9117;SDS011;4594;50.994;7.126;2023-07-16T02:01:55;1.30;;;1.30;;
9117;SDS011;4594;50.994;7.126;2023-07-16T02:04:21;2.07;;;1.40;;
9117;SDS011;4594;50.994;7.126;2023-07-16T02:06:46;3.63;;;2.13;;
9117;SDS011;4594;50.994;7.126;2023-07-16T02:09:15;1.80;;;1.70;;
9117;SDS011;4594;50.994;7.126;2023-07-16T02:11:41;1.70;;;1.60;;
9117;SDS011;4594;50.994;7.126;2023-07-16T02:14:06;4.60;;;2.03;;
9117;SDS011;4594;50.994;7.126;2023-07-16T02:16:32;1.60;;;1.50;;
9117;SDS011;4594;50.994;7.126;2023-07-16T02:18:58;3.20;;;2.20;;
9117;SDS011;4594;50.994;7.126;2023-07-16T02:21:23;4.20;;;1.70;;
9117;SDS011;4594;50.994;7.126;2023-07-16T02:23:49;2.53;;;1.63;;
9117;SDS011;4594;50.994;7.126;2023-07-16T02:26:15;1.87;;;1.77;;
9117;SDS011;4594;50.994;7.126;2023-07-16T02:28:40;2.00;;;1.73;;
9117;SDS011;4594;50.994;7.126;2023-07-16T02:31:06;2.97;;;1.70;;
9117;SDS011;4594;50.994;7.126;2023-07-16T02:33:32;5.10;;;1.80;;
9117;SDS011;4594;50.994;7.126;2023-07-16T02:35:57;2.03;;;1.80;;
9117;SDS011;4594;50.994;7.126;2023-07-16T02:38:23;1.60;;;1.60;;
9117;SDS011;4594;50.994;7.126;2023-07-16T02:40:49;1.70;;;1.60;;
9117;SDS011;4594;50.994;7.126;2023-07-16T02:43:14;2.40;;;1.57;;
9117;SDS011;4594;50.994;7.126;2023-07-16T02:45:40;1.90;;;1.80;;
9117;SDS011;4594;50.994;7.126;2023-07-16T02:48:06;3.10;;;1.80;;
9117;SDS011;4594;50.994;7.126;2023-07-16T02:50:38;1.90;;;1.80;;
9117;SDS011;4594;50.994;7.126;2023-07-16T02:53:05;1.87;;;1.77;;
9117;SDS011;4594;50.994;7.126;2023-07-16T02:55:32;1.80;;;1.70;;
9117;SDS011;4594;50.994;7.126;2023-07-16T02:57:59;7.43;;;1.97;;
9117;SDS011;4594;50.994;7.126;2023-07-16T03:00:32;1.90;;;1.77;;
9117;SDS011;4594;50.994;7.126;2023-07-16T03:02:59;2.27;;;1.67;;
9117;SDS011;4594;50.994;7.126;2023-07-16T03:05:26;1.77;;;1.67;;
9117;SDS011;4594;50.994;7.126;2023-07-16T03:07:52;3.43;;;1.67;;
9117;SDS011;4594;50.994;7.126;2023-07-16T03:10:19;2.33;;;1.80;;
9117;SDS011;4594;50.994;7.126;2023-07-16T03:12:51;2.10;;;1.93;;
9117;SDS011;4594;50.994;7.126;2023-07-16T03:15:17;3.80;;;1.90;;
9117;SDS011;4594;50.994;7.126;2023-07-16T03:17:43;2.97;;;1.97;;
9117;SDS011;4594;50.994;7.126;2023-07-16T03:20:09;2.00;;;1.70;;
9117;SDS011;4594;50.994;7.126;2023-07-16T03:22:35;3.47;;;1.70;;
9117;SDS011;4594;50.994;7.126;2023-07-16T03:25:01;2.10;;;2.00;;
9117;SDS011;4594;50.994;7.126;2023-07-16T03:27:27;2.53;;;1.73;;
9117;SDS011;4594;50.994;7.126;2023-07-16T03:29:54;4.00;;;1.70;;
9117;SDS011;4594;50.994;7.126;2023-07-16T03:32:19;8.90;;;2.00;;
9117;SDS011;4594;50.994;7.126;2023-07-16T03:34:45;2.13;;;1.60;;
9117;SDS011;4594;50.994;7.126;2023-07-16T03:37:11;2.73;;;2.00;;
9117;SDS011;4594;50.994;7.126;2023-07-16T03:39:36;3.17;;;1.80;;
9117;SDS011;4594;50.994;7.126;2023-07-16T03:42:02;1.57;;;1.57;;
9117;SDS011;4594;50.994;7.126;2023-07-16T03:44:29;3.57;;;2.17;;
9117;SDS011;4594;50.994;7.126;2023-07-16T03:46:54;2.90;;;2.00;;
9117;SDS011;4594;50.994;7.126;2023-07-16T03:49:20;3.87;;;1.83;;
9117;SDS011;4594;50.994;7.126;2023-07-16T03:51:46;2.03;;;1.90;;
9117;SDS011;4594;50.994;7.126;2023-07-16T03:54:11;2.13;;;1.87;;
9117;SDS011;4594;50.994;7.126;2023-07-16T03:56:37;2.47;;;2.27;;
9117;SDS011;4594;50.994;7.126;2023-07-16T03:59:03;7.07;;;1.90;;
9117;SDS011;4594;50.994;7.126;2023-07-16T04:01:29;3.30;;;2.20;;
9117;SDS011;4594;50.994;7.126;2023-07-16T04:03:54;4.77;;;1.93;;
9117;SDS011;4594;50.994;7.126;2023-07-16T04:06:20;3.90;;;2.10;;
9117;SDS011;4594;50.994;7.126;2023-07-16T04:08:46;1.93;;;1.77;;
9117;SDS011;4594;50.994;7.126;2023-07-16T04:11:11;2.07;;;1.97;;
9117;SDS011;4594;50.994;7.126;2023-07-16T04:13:37;2.60;;;1.93;;
9117;SDS011;4594;50.994;7.126;2023-07-16T04:16:03;2.20;;;2.00;;
9117;SDS011;4594;50.994;7.126;2023-07-16T04:18:29;3.23;;;1.97;;
9117;SDS011;4594;50.994;7.126;2023-07-16T04:20:55;3.20;;;2.00;;
9117;SDS011;4594;50.994;7.126;2023-07-16T04:23:20;2.57;;;2.10;;
9117;SDS011;4594;50.994;7.126;2023-07-16T04:25:50;2.17;;;2.07;;
9117;SDS011;4594;50.994;7.126;2023-07-16T04:28:18;2.50;;;2.30;;
9117;SDS011;4594;50.994;7.126;2023-07-16T04:30:44;1.80;;;1.70;;
9117;SDS011;4594;50.994;7.126;2023-07-16T04:33:10;2.23;;;1.90;;
9117;SDS011;4594;50.994;7.126;2023-07-16T04:35:35;2.23;;;2.00;;
9117;SDS011;4594;50.994;7.126;2023-07-16T04:38:01;3.10;;;2.23;;
9117;SDS011;4594;50.994;7.126;2023-07-16T04:40:28;2.23;;;2.03;;
9117;SDS011;4594;50.994;7.126;2023-07-16T04:42:55;3.10;;;2.27;;
9117;SDS011;4594;50.994;7.126;2023-07-16T04:45:21;2.97;;;1.93;;
9117;SDS011;4594;50.994;7.126;2023-07-16T04:47:47;2.20;;;2.00;;
9117;SDS011;4594;50.994;7.126;2023-07-16T04:50:13;1.80;;;1.73;;
9117;SDS011;4594;50.994;7.126;2023-07-16T04:52:38;2.43;;;2.20;;
9117;SDS011;4594;50.994;7.126;2023-07-16T04:55:04;2.77;;;2.13;;
9117;SDS011;4594;50.994;7.126;2023-07-16T04:57:32;2.10;;;2.00;;
9117;SDS011;4594;50.994;7.126;2023-07-16T04:59:58;5.07;;;2.13;;
9117;SDS011;4594;50.994;7.126;2023-07-16T05:02:24;7.73;;;2.30;;
9117;SDS011;4594;50.994;7.126;2023-07-16T05:04:50;3.53;;;2.20;;
9117;SDS011;4594;50.994;7.126;2023-07-16T05:07:15;3.80;;;2.10;;
9117;SDS011;4594;50.994;7.126;2023-07-16T05:09:42;10.93;;;2.63;;
9117;SDS011;4594;50.994;7.126;2023-07-16T05:12:08;2.50;;;2.30;;
9117;SDS011;4594;50.994;7.126;2023-07-16T05:14:42;5.17;;;2.47;;
9117;SDS011;4594;50.994;7.126;2023-07-16T05:17:10;3.07;;;2.13;;
9117;SDS011;4594;50.994;7.126;2023-07-16T05:19:37;2.70;;;2.00;;
9117;SDS011;4594;50.994;7.126;2023-07-16T05:22:03;4.23;;;1.97;;
9117;SDS011;4594;50.994;7.126;2023-07-16T05:24:29;2.17;;;1.97;;
9117;SDS011;4594;50.994;7.126;2023-07-16T05:26:56;2.00;;;1.80;;
9117;SDS011;4594;50.994;7.126;2023-07-16T05:29:21;3.20;;;2.43;;
9117;SDS011;4594;50.994;7.126;2023-07-16T05:31:47;2.47;;;2.20;;
9117;SDS011;4594;50.994;7.126;2023-07-16T05:34:13;5.23;;;1.93;;
9117;SDS011;4594;50.994;7.126;2023-07-16T05:36:40;3.07;;;2.03;;
9117;SDS011;4594;50.994;7.126;2023-07-16T05:39:09;2.37;;;1.97;;
9117;SDS011;4594;50.994;7.126;2023-07-16T05:41:37;6.53;;;2.27;;
9117;SDS011;4594;50.994;7.126;2023-07-16T05:44:04;3.83;;;2.23;;
9117;SDS011;4594;50.994;7.126;2023-07-16T05:46:30;3.37;;;1.90;;
9117;SDS011;4594;50.994;7.126;2023-07-16T05:48:58;3.20;;;2.33;;
9117;SDS011;4594;50.994;7.126;2023-07-16T05:51:23;3.43;;;2.27;;
9117;SDS011;4594;50.994;7.126;2023-07-16T05:53:49;4.80;;;2.20;;
9117;SDS011;4594;50.994;7.126;2023-07-16T05:56:15;2.10;;;2.00;;
9117;SDS011;4594;50.994;7.126;2023-07-16T05:58:41;4.07;;;2.27;;
9117;SDS011;4594;50.994;7.126;2023-07-16T06:01:06;3.03;;;2.10;;
9117;SDS011;4594;50.994;7.126;2023-07-16T06:03:33;5.37;;;2.37;;
9117;SDS011;4594;50.994;7.126;2023-07-16T06:05:59;2.53;;;2.20;;
9117;SDS011;4594;50.994;7.126;2023-07-16T06:08:24;3.73;;;2.50;;
9117;SDS011;4594;50.994;7.126;2023-07-16T06:10:50;2.30;;;2.10;;
9117;SDS011;4594;50.994;7.126;2023-07-16T06:13:16;2.40;;;2.20;;
9117;SDS011;4594;50.994;7.126;2023-07-16T06:15:42;2.20;;;2.10;;
9117;SDS011;4594;50.994;7.126;2023-07-16T06:18:09;7.00;;;2.43;;
9117;SDS011;4594;50.994;7.126;2023-07-16T06:20:35;6.30;;;2.97;;
9117;SDS011;4594;50.994;7.126;2023-07-16T06:23:01;4.77;;;2.43;;
9117;SDS011;4594;50.994;7.126;2023-07-16T06:25:26;3.93;;;2.50;;
9117;SDS011;4594;50.994;7.126;2023-07-16T06:27:52;3.53;;;2.93;;
9117;SDS011;4594;50.994;7.126;2023-07-16T06:30:18;2.67;;;2.43;;
9117;SDS011;4594;50.994;7.126;2023-07-16T06:32:43;5.17;;;2.77;;
9117;SDS011;4594;50.994;7.126;2023-07-16T06:35:09;5.10;;;2.67;;
9117;SDS011;4594;50.994;7.126;2023-07-16T06:37:35;3.00;;;2.70;;
9117;SDS011;4594;50.994;7.126;2023-07-16T06:40:01;5.77;;;2.73;;
9117;SDS011;4594;50.994;7.126;2023-07-16T06:42:28;3.67;;;3.10;;
9117;SDS011;4594;50.994;7.126;2023-07-16T06:44:53;3.03;;;2.30;;
9117;SDS011;4594;50.994;7.126;2023-07-16T06:47:19;6.50;;;2.50;;
9117;SDS011;4594;50.994;7.126;2023-07-16T06:49:45;3.23;;;2.37;;
9117;SDS011;4594;50.994;7.126;2023-07-16T06:52:20;2.77;;;2.57;;
9117;SDS011;4594;50.994;7.126;2023-07-16T06:54:49;3.30;;;2.50;;
9117;SDS011;4594;50.994;7.126;2023-07-16T06:57:15;2.40;;;2.20;;
9117;SDS011;4594;50.994;7.126;2023-07-16T06:59:40;4.87;;;3.07;;
9117;SDS011;4594;50.994;7.126;2023-07-16T07:02:06;3.70;;;2.50;;
9117;SDS011;4594;50.994;7.126;2023-07-16T07:04:32;3.13;;;2.37;;
9117;SDS011;4594;50.994;7.126;2023-07-16T07:06:58;4.47;;;2.70;;
9117;SDS011;4594;50.994;7.126;2023-07-16T07:09:23;2.70;;;2.40;;
9117;SDS011;4594;50.994;7.126;2023-07-16T07:11:49;3.33;;;2.27;;
9117;SDS011;4594;50.994;7.126;2023-07-16T07:14:15;4.67;;;2.57;;
9117;SDS011;4594;50.994;7.126;2023-07-16T07:16:40;5.47;;;2.60;;
9117;SDS011;4594;50.994;7.126;2023-07-16T07:19:06;3.00;;;2.30;;
9117;SDS011;4594;50.994;7.126;2023-07-16T07:21:33;7.00;;;2.00;;
9117;SDS011;4594;50.994;7.126;2023-07-16T07:23:59;2.17;;;1.87;;
9117;SDS011;4594;50.994;7.126;2023-07-16T07:26:25;5.43;;;2.00;;
9117;SDS011;4594;50.994;7.126;2023-07-16T07:28:51;4.77;;;2.20;;
9117;SDS011;4594;50.994;7.126;2023-07-16T07:31:16;6.50;;;2.30;;
9117;SDS011;4594;50.994;7.126;2023-07-16T07:33:42;2.33;;;2.00;;
9117;SDS011;4594;50.994;7.126;2023-07-16T07:36:08;5.90;;;2.37;;
9117;SDS011;4594;50.994;7.126;2023-07-16T07:38:33;1.80;;;1.70;;
9117;SDS011;4594;50.994;7.126;2023-07-16T07:40:59;4.63;;;2.10;;
9117;SDS011;4594;50.994;7.126;2023-07-16T07:43:24;2.33;;;2.20;;
9117;SDS011;4594;50.994;7.126;2023-07-16T07:45:50;3.13;;;2.20;;
9117;SDS011;4594;50.994;7.126;2023-07-16T07:48:16;2.60;;;2.03;;
9117;SDS011;4594;50.994;7.126;2023-07-16T07:50:41;2.43;;;2.00;;
9117;SDS011;4594;50.994;7.126;2023-07-16T07:53:07;2.67;;;2.17;;
9117;SDS011;4594;50.994;7.126;2023-07-16T07:55:33;3.70;;;2.07;;
9117;SDS011;4594;50.994;7.126;2023-07-16T07:58:02;2.10;;;2.00;;
9117;SDS011;4594;50.994;7.126;2023-07-16T08:00:28;3.80;;;2.10;;
9117;SDS011;4594;50.994;7.126;2023-07-16T08:02:53;2.63;;;1.60;;
9117;SDS011;4594;50.994;7.126;2023-07-16T08:05:19;2.00;;;1.77;;
9117;SDS011;4594;50.994;7.126;2023-07-16T08:07:45;1.83;;;1.73;;
9117;SDS011;4594;50.994;7.126;2023-07-16T08:10:10;2.20;;;2.00;;
9117;SDS011;4594;50.994;7.126;2023-07-16T08:12:36;2.40;;;2.00;;
9117;SDS011;4594;50.994;7.126;2023-07-16T08:15:02;2.03;;;1.93;;
9117;SDS011;4594;50.994;7.126;2023-07-16T08:17:28;4.63;;;2.10;;
9117;SDS011;4594;50.994;7.126;2023-07-16T08:19:54;1.80;;;1.70;;
9117;SDS011;4594;50.994;7.126;2023-07-16T08:22:23;2.13;;;1.90;;
9117;SDS011;4594;50.994;7.126;2023-07-16T08:24:50;2.00;;;1.90;;
9117;SDS011;4594;50.994;7.126;2023-07-16T08:27:16;2.97;;;1.63;;
9117;SDS011;4594;50.994;7.126;2023-07-16T08:29:43;2.20;;;1.67;;
9117;SDS011;4594;50.994;7.126;2023-07-16T08:32:09;1.90;;;1.80;;
9117;SDS011;4594;50.994;7.126;2023-07-16T08:34:35;3.47;;;2.13;;
9117;SDS011;4594;50.994;7.126;2023-07-16T08:37:01;1.93;;;1.73;;
9117;SDS011;4594;50.994;7.126;2023-07-16T08:39:26;2.90;;;2.40;;
9117;SDS011;4594;50.994;7.126;2023-07-16T08:41:52;2.17;;;1.87;;
9117;SDS011;4594;50.994;7.126;2023-07-16T08:44:19;2.60;;;2.37;;
9117;SDS011;4594;50.994;7.126;2023-07-16T08:46:45;2.63;;;1.77;;
9117;SDS011;4594;50.994;7.126;2023-07-16T08:49:11;2.03;;;1.90;;
9117;SDS011;4594;50.994;7.126;2023-07-16T08:51:37;2.50;;;2.30;;
9117;SDS011;4594;50.994;7.126;2023-07-16T08:54:04;6.13;;;2.30;;
9117;SDS011;4594;50.994;7.126;2023-07-16T08:56:30;2.90;;;2.57;;
9117;SDS011;4594;50.994;7.126;2023-07-16T08:58:56;3.00;;;2.37;;
9117;SDS011;4594;50.994;7.126;2023-07-16T09:01:24;4.63;;;2.30;;
9117;SDS011;4594;50.994;7.126;2023-07-16T09:03:49;2.20;;;2.00;;
9117;SDS011;4594;50.994;7.126;2023-07-16T09:06:15;2.40;;;2.20;;
9117;SDS011;4594;50.994;7.126;2023-07-16T09:08:41;4.17;;;2.03;;
9117;SDS011;4594;50.994;7.126;2023-07-16T09:11:10;2.20;;;2.00;;
9117;SDS011;4594;50.994;7.126;2023-07-16T09:13:46;3.73;;;1.90;;
9117;SDS011;4594;50.994;7.126;2023-07-16T09:16:11;4.03;;;1.83;;
9117;SDS011;4594;50.994;7.126;2023-07-16T09:18:39;2.33;;;2.13;;
9117;SDS011;4594;50.994;7.126;2023-07-16T09:21:05;1.83;;;1.73;;
9117;SDS011;4594;50.994;7.126;2023-07-16T09:23:32;1.83;;;1.73;;
9117;SDS011;4594;50.994;7.126;2023-07-16T09:25:58;2.63;;;1.90;;
9117;SDS011;4594;50.994;7.126;2023-07-16T09:28:24;2.67;;;2.17;;
9117;SDS011;4594;50.994;7.126;2023-07-16T09:30:50;2.40;;;2.20;;
9117;SDS011;4594;50.994;7.126;2023-07-16T09:33:21;2.13;;;1.97;;
9117;SDS011;4594;50.994;7.126;2023-07-16T09:35:51;1.80;;;1.70;;
9117;SDS011;4594;50.994;7.126;2023-07-16T09:38:17;2.10;;;2.00;;
9117;SDS011;4594;50.994;7.126;2023-07-16T09:40:43;2.57;;;2.10;;
9117;SDS011;4594;50.994;7.126;2023-07-16T09:43:10;2.17;;;2.07;;
9117;SDS011;4594;50.994;7.126;2023-07-16T09:45:38;3.13;;;2.03;;
9117;SDS011;4594;50.994;7.126;2023-07-16T09:48:04;1.70;;;1.60;;
9117;SDS011;4594;50.994;7.126;2023-07-16T09:50:33;4.50;;;1.93;;
9117;SDS011;4594;50.994;7.126;2023-07-16T09:53:01;2.60;;;1.97;;
9117;SDS011;4594;50.994;7.126;2023-07-16T09:55:30;2.40;;;1.77;;
9117;SDS011;4594;50.994;7.126;2023-07-16T09:57:59;2.13;;;2.03;;
9117;SDS011;4594;50.994;7.126;2023-07-16T10:00:28;2.30;;;2.20;;
9117;SDS011;4594;50.994;7.126;2023-07-16T10:02:57;3.50;;;2.77;;
9117;SDS011;4594;50.994;7.126;2023-07-16T10:05:26;3.23;;;2.20;;
9117;SDS011;4594;50.994;7.126;2023-07-16T10:07:54;4.57;;;1.67;;
9117;SDS011;4594;50.994;7.126;2023-07-16T10:10:40;2.40;;;1.63;;
9117;SDS011;4594;50.994;7.126;2023-07-16T10:13:08;1.40;;;1.30;;
9117;SDS011;4594;50.994;7.126;2023-07-16T10:15:38;3.50;;;1.60;;
9117;SDS011;4594;50.994;7.126;2023-07-16T10:18:07;1.70;;;1.53;;
9117;SDS011;4594;50.994;7.126;2023-07-16T10:20:34;2.03;;;1.93;;
9117;SDS011;4594;50.994;7.126;2023-07-16T10:23:14;2.17;;;1.97;;
9117;SDS011;4594;50.994;7.126;2023-07-16T10:25:57;2.00;;;1.83;;
9117;SDS011;4594;50.994;7.126;2023-07-16T10:28:31;2.40;;;1.70;;
9117;SDS011;4594;50.994;7.126;2023-07-16T10:31:00;1.57;;;1.57;;
9117;SDS011;4594;50.994;7.126;2023-07-16T10:33:26;1.80;;;1.70;;
9117;SDS011;4594;50.994;7.126;2023-07-16T10:35:52;2.40;;;1.93;;
9117;SDS011;4594;50.994;7.126;2023-07-16T10:38:18;2.10;;;1.97;;
9117;SDS011;4594;50.994;7.126;2023-07-16T10:40:44;2.00;;;1.80;;
9117;SDS011;4594;50.994;7.126;2023-07-16T10:43:11;2.27;;;2.07;;
9117;SDS011;4594;50.994;7.126;2023-07-16T10:45:37;1.90;;;1.60;;
9117;SDS011;4594;50.994;7.126;2023-07-16T10:48:04;4.57;;;1.80;;
9117;SDS011;4594;50.994;7.126;2023-07-16T10:50:33;1.80;;;1.70;;
9117;SDS011;4594;50.994;7.126;2023-07-16T10:53:00;1.57;;;1.50;;
9117;SDS011;4594;50.994;7.126;2023-07-16T10:55:27;1.90;;;1.80;;
9117;SDS011;4594;50.994;7.126;2023-07-16T10:57:54;2.80;;;2.60;;
9117;SDS011;4594;50.994;7.126;2023-07-16T11:00:21;3.20;;;2.97;;
9117;SDS011;4594;50.994;7.126;2023-07-16T11:02:49;3.00;;;2.63;;
9117;SDS011;4594;50.994;7.126;2023-07-16T11:05:16;2.77;;;2.57;;
9117;SDS011;4594;50.994;7.126;2023-07-16T11:07:47;1.93;;;1.80;;
9117;SDS011;4594;50.994;7.126;2023-07-16T11:10:15;2.70;;;2.50;;
9117;SDS011;4594;50.994;7.126;2023-07-16T11:12:41;2.20;;;2.10;;
9117;SDS011;4594;50.994;7.126;2023-07-16T11:15:07;4.03;;;2.27;;
9117;SDS011;4594;50.994;7.126;2023-07-16T11:17:36;2.37;;;2.00;;
9117;SDS011;4594;50.994;7.126;2023-07-16T11:20:07;2.97;;;2.30;;
9117;SDS011;4594;50.994;7.126;2023-07-16T11:22:36;2.80;;;2.20;;
9117;SDS011;4594;50.994;7.126;2023-07-16T11:25:03;2.70;;;2.10;;
9117;SDS011;4594;50.994;7.126;2023-07-16T11:27:36;2.40;;;2.20;;
9117;SDS011;4594;50.994;7.126;2023-07-16T11:30:05;2.20;;;2.10;;
9117;SDS011;4594;50.994;7.126;2023-07-16T11:35:08;4.40;;;2.27;;
9117;SDS011;4594;50.994;7.126;2023-07-16T11:37:42;2.93;;;2.50;;
9117;SDS011;4594;50.994;7.126;2023-07-16T11:40:09;2.10;;;2.00;;
9117;SDS011;4594;50.994;7.126;2023-07-16T11:42:41;1.83;;;1.83;;
9117;SDS011;4594;50.994;7.126;2023-07-16T11:45:22;14.97;;;2.50;;
9117;SDS011;4594;50.994;7.126;2023-07-16T11:47:51;3.20;;;2.40;;
9117;SDS011;4594;50.994;7.126;2023-07-16T11:50:17;3.50;;;2.53;;
9117;SDS011;4594;50.994;7.126;2023-07-16T11:52:51;3.23;;;2.47;;
9117;SDS011;4594;50.994;7.126;2023-07-16T11:55:19;5.27;;;2.53;;
9117;SDS011;4594;50.994;7.126;2023-07-16T11:57:44;5.67;;;2.57;;
9117;SDS011;4594;50.994;7.126;2023-07-16T12:00:10;2.93;;;2.70;;
9117;SDS011;4594;50.994;7.126;2023-07-16T12:02:37;5.37;;;3.20;;
9117;SDS011;4594;50.994;7.126;2023-07-16T12:05:02;3.23;;;2.23;;
9117;SDS011;4594;50.994;7.126;2023-07-16T12:07:32;2.33;;;2.20;;
9117;SDS011;4594;50.994;7.126;2023-07-16T12:10:03;2.37;;;2.17;;
9117;SDS011;4594;50.994;7.126;2023-07-16T12:12:31;2.00;;;1.90;;
9117;SDS011;4594;50.994;7.126;2023-07-16T12:14:59;5.10;;;2.63;;
9117;SDS011;4594;50.994;7.126;2023-07-16T12:17:25;5.03;;;3.10;;
9117;SDS011;4594;50.994;7.126;2023-07-16T12:19:51;2.57;;;2.37;;
9117;SDS011;4594;50.994;7.126;2023-07-16T12:22:17;2.47;;;2.27;;
9117;SDS011;4594;50.994;7.126;2023-07-16T12:24:43;3.23;;;2.67;;
9117;SDS011;4594;50.994;7.126;2023-07-16T12:27:10;5.63;;;3.37;;
9117;SDS011;4594;50.994;7.126;2023-07-16T12:29:35;3.40;;;3.10;;
9117;SDS011;4594;50.994;7.126;2023-07-16T12:32:01;3.03;;;2.73;;
9117;SDS011;4594;50.994;7.126;2023-07-16T12:34:27;2.33;;;2.20;;
9117;SDS011;4594;50.994;7.126;2023-07-16T12:36:53;2.00;;;1.90;;
9117;SDS011;4594;50.994;7.126;2023-07-16T12:39:20;3.10;;;1.90;;
9117;SDS011;4594;50.994;7.126;2023-07-16T12:41:46;2.50;;;2.07;;
9117;SDS011;4594;50.994;7.126;2023-07-16T12:44:12;3.73;;;1.90;;
9117;SDS011;4594;50.994;7.126;2023-07-16T12:46:38;3.03;;;2.30;;
9117;SDS011;4594;50.994;7.126;2023-07-16T12:49:03;2.30;;;2.00;;
9117;SDS011;4594;50.994;7.126;2023-07-16T12:51:29;2.23;;;2.03;;
9117;SDS011;4594;50.994;7.126;2023-07-16T12:53:55;2.03;;;1.93;;
9117;SDS011;4594;50.994;7.126;2023-07-16T12:56:20;6.13;;;3.50;;
9117;SDS011;4594;50.994;7.126;2023-07-16T12:58:47;4.57;;;3.23;;
9117;SDS011;4594;50.994;7.126;2023-07-16T13:01:13;3.70;;;2.60;;
9117;SDS011;4594;50.994;7.126;2023-07-16T13:03:39;3.43;;;2.37;;
9117;SDS011;4594;50.994;7.126;2023-07-16T13:06:05;4.13;;;2.60;;
9117;SDS011;4594;50.994;7.126;2023-07-16T13:08:30;2.40;;;2.20;;
9117;SDS011;4594;50.994;7.126;2023-07-16T13:10:56;2.10;;;1.90;;
9117;SDS011;4594;50.994;7.126;2023-07-16T13:13:22;2.30;;;2.10;;
9117;SDS011;4594;50.994;7.126;2023-07-16T13:15:48;2.07;;;1.93;;
9117;SDS011;4594;50.994;7.126;2023-07-16T13:18:14;4.03;;;3.03;;
9117;SDS011;4594;50.994;7.126;2023-07-16T13:20:40;3.83;;;3.30;;
9117;SDS011;4594;50.994;7.126;2023-07-16T13:23:05;5.57;;;3.20;;
9117;SDS011;4594;50.994;7.126;2023-07-16T13:25:33;2.77;;;2.57;;
9117;SDS011;4594;50.994;7.126;2023-07-16T13:28:00;9.43;;;3.30;;
9117;SDS011;4594;50.994;7.126;2023-07-16T13:30:27;2.97;;;2.63;;
9117;SDS011;4594;50.994;7.126;2023-07-16T13:32:53;6.83;;;3.70;;
9117;SDS011;4594;50.994;7.126;2023-07-16T13:35:21;3.50;;;3.20;;
9117;SDS011;4594;50.994;7.126;2023-07-16T13:37:50;2.97;;;2.70;;
9117;SDS011;4594;50.994;7.126;2023-07-16T13:40:16;3.57;;;2.73;;
9117;SDS011;4594;50.994;7.126;2023-07-16T13:42:44;2.43;;;2.23;;
9117;SDS011;4594;50.994;7.126;2023-07-16T13:45:14;2.40;;;2.20;;
9117;SDS011;4594;50.994;7.126;2023-07-16T13:47:40;2.67;;;2.10;;
9117;SDS011;4594;50.994;7.126;2023-07-16T13:50:06;3.90;;;2.80;;
9117;SDS011;4594;50.994;7.126;2023-07-16T13:52:32;8.10;;;3.77;;
9117;SDS011;4594;50.994;7.126;2023-07-16T13:54:58;3.30;;;3.10;;
9117;SDS011;4594;50.994;7.126;2023-07-16T13:57:24;3.17;;;2.90;;
9117;SDS011;4594;50.994;7.126;2023-07-16T13:59:50;3.50;;;3.20;;
9117;SDS011;4594;50.994;7.126;2023-07-16T14:02:16;4.87;;;3.20;;
9117;SDS011;4594;50.994;7.126;2023-07-16T14:04:41;3.03;;;2.73;;
9117;SDS011;4594;50.994;7.126;2023-07-16T14:07:07;2.60;;;2.40;;
9117;SDS011;4594;50.994;7.126;2023-07-16T14:09:33;2.50;;;2.17;;
9117;SDS011;4594;50.994;7.126;2023-07-16T14:11:58;2.60;;;2.40;;
9117;SDS011;4594;50.994;7.126;2023-07-16T14:14:24;2.17;;;1.97;;
9117;SDS011;4594;50.994;7.126;2023-07-16T14:16:50;2.40;;;2.20;;
9117;SDS011;4594;50.994;7.126;2023-07-16T14:19:16;2.60;;;1.93;;
9117;SDS011;4594;50.994;7.126;2023-07-16T14:21:42;3.77;;;2.57;;
9117;SDS011;4594;50.994;7.126;2023-07-16T14:24:08;4.83;;;2.97;;
9117;SDS011;4594;50.994;7.126;2023-07-16T14:26:34;5.97;;;2.90;;
9117;SDS011;4594;50.994;7.126;2023-07-16T14:28:59;6.70;;;3.20;;
9117;SDS011;4594;50.994;7.126;2023-07-16T14:31:25;3.17;;;2.87;;
9117;SDS011;4594;50.994;7.126;2023-07-16T14:33:51;8.63;;;4.37;;
9117;SDS011;4594;50.994;7.126;2023-07-16T14:36:17;9.00;;;4.30;;
9117;SDS011;4594;50.994;7.126;2023-07-16T14:38:43;5.17;;;3.27;;
9117;SDS011;4594;50.994;7.126;2023-07-16T14:41:08;5.07;;;3.17;;
9117;SDS011;4594;50.994;7.126;2023-07-16T14:43:35;2.60;;;2.50;;
9117;SDS011;4594;50.994;7.126;2023-07-16T14:46:01;4.20;;;3.20;;
9117;SDS011;4594;50.994;7.126;2023-07-16T14:48:28;2.90;;;2.70;;
9117;SDS011;4594;50.994;7.126;2023-07-16T14:50:54;3.10;;;2.63;;
9117;SDS011;4594;50.994;7.126;2023-07-16T14:53:21;5.47;;;3.47;;
9117;SDS011;4594;50.994;7.126;2023-07-16T14:55:50;5.20;;;3.13;;
9117;SDS011;4594;50.994;7.126;2023-07-16T14:58:18;5.30;;;2.93;;
9117;SDS011;4594;50.994;7.126;2023-07-16T15:00:46;3.13;;;2.77;;
9117;SDS011;4594;50.994;7.126;2023-07-16T15:03:12;2.10;;;2.00;;
9117;SDS011;4594;50.994;7.126;2023-07-16T15:05:38;3.80;;;2.47;;
9117;SDS011;4594;50.994;7.126;2023-07-16T15:08:04;2.50;;;2.27;;
9117;SDS011;4594;50.994;7.126;2023-07-16T15:10:30;2.03;;;1.93;;
9117;SDS011;4594;50.994;7.126;2023-07-16T15:12:57;4.60;;;4.13;;
9117;SDS011;4594;50.994;7.126;2023-07-16T15:15:22;7.57;;;4.63;;
9117;SDS011;4594;50.994;7.126;2023-07-16T15:17:48;4.13;;;3.77;;
9117;SDS011;4594;50.994;7.126;2023-07-16T15:20:14;4.40;;;3.37;;